Time;durP1;ratioP1;P1;durP2;ratioP2;P2;SDS_P1;SDS_P2;PMS_P1;PMS_P2;Temp;Humidity;BMP_temperature;BMP_pressure;BME280_temperature;BME280_humidity;BME280_pressure;Samples;Min_cycle;Max_cycle;Signal;HPM_P1;HPM_P2
2022/03/29 00:01:09;;;;;;;22.73;16.27;;;13.10;92.30;;;;;;5055618;28;20174;-67
2022/03/29 00:03:35;;;;;;;22.00;16.23;;;13.10;92.50;;;;;;5055446;28;20420;-67
2022/03/29 00:06:00;;;;;;;20.87;16.87;;;13.10;92.60;;;;;;5054568;28;20455;-67
2022/03/29 00:08:26;;;;;;;21.57;17.57;;;13.10;92.70;;;;;;5055294;28;20258;-67
2022/03/29 00:10:52;;;;;;;23.53;17.57;;;13.10;92.90;;;;;;5054518;28;20249;-67
2022/03/29 00:13:18;;;;;;;20.90;17.20;;;13.10;92.90;;;;;;5055169;28;20199;-67
2022/03/29 00:15:43;;;;;;;22.53;17.13;;;13.00;92.90;;;;;;5055215;28;20206;-67
2022/03/29 00:18:09;;;;;;;22.73;17.00;;;13.00;92.90;;;;;;5055449;28;20205;-67
2022/03/29 00:20:35;;;;;;;24.90;17.03;;;13.00;93.10;;;;;;5054872;28;20460;-67
2022/03/29 00:23:01;;;;;;;21.40;16.53;;;12.90;93.00;;;;;;5054501;28;20626;-67
2022/03/29 00:25:26;;;;;;;22.40;16.10;;;12.80;93.10;;;;;;5054128;28;20184;-67
2022/03/29 00:27:52;;;;;;;22.70;16.77;;;12.80;93.10;;;;;;5054424;28;20536;-67
2022/03/29 00:30:18;;;;;;;20.60;16.63;;;12.70;93.00;;;;;;5054935;28;20236;-67
2022/03/29 00:32:45;;;;;;;22.40;17.20;;;12.70;93.10;;;;;;5054851;28;20934;-67
2022/03/29 00:35:10;;;;;;;18.33;15.63;;;12.60;93.20;;;;;;5054824;28;20457;-67
2022/03/29 00:37:38;;;;;;;21.03;15.90;;;12.60;93.50;;;;;;5054595;28;20455;-67
2022/03/29 00:40:04;;;;;;;21.77;16.13;;;12.60;93.80;;;;;;5053897;28;20844;-67
2022/03/29 00:42:30;;;;;;;21.60;16.37;;;12.60;93.80;;;;;;5054714;28;20428;-67
2022/03/29 00:44:57;;;;;;;21.17;15.93;;;12.50;94.10;;;;;;5054126;28;20404;-67
2022/03/29 00:47:23;;;;;;;23.43;17.10;;;12.50;94.20;;;;;;5054398;28;20548;-67
2022/03/29 00:49:49;;;;;;;21.27;16.47;;;12.50;94.30;;;;;;5054016;28;20427;-68
2022/03/29 00:52:17;;;;;;;22.83;16.50;;;12.50;94.30;;;;;;5054449;28;20412;-67
2022/03/29 00:54:43;;;;;;;25.07;17.20;;;12.50;94.30;;;;;;5054509;28;20204;-67
2022/03/29 00:57:11;;;;;;;22.37;16.80;;;12.50;94.50;;;;;;5053536;28;20877;-67
2022/03/29 00:59:38;;;;;;;21.73;17.80;;;12.50;94.40;;;;;;5054335;28;20420;-67
2022/03/29 01:02:05;;;;;;;23.63;15.83;;;12.40;94.80;;;;;;5053778;28;20420;-67
2022/03/29 01:04:31;;;;;;;22.33;17.27;;;12.50;94.60;;;;;;5054332;28;20408;-67
2022/03/29 01:06:58;;;;;;;24.93;16.67;;;12.40;94.70;;;;;;5052683;28;20503;-67
2022/03/29 01:09:28;;;;;;;23.17;17.83;;;12.40;94.80;;;;;;5054254;28;20408;-67
2022/03/29 01:11:54;;;;;;;21.93;15.60;;;12.50;94.90;;;;;;5052447;28;20771;-67
2022/03/29 01:14:21;;;;;;;21.90;16.37;;;12.40;95.00;;;;;;5054043;28;20474;-67
2022/03/29 01:19:31;;;;;;;24.37;17.13;;;12.40;95.10;;;;;;5054225;28;20407;-67
2022/03/29 01:21:59;;;;;;;20.90;15.87;;;12.30;95.20;;;;;;5052981;28;20452;-67
2022/03/29 01:24:26;;;;;;;24.27;16.70;;;12.30;95.40;;;;;;5053937;28;20419;-67
2022/03/29 01:26:57;;;;;;;25.30;17.60;;;12.30;95.60;;;;;;5052982;28;20436;-67
2022/03/29 01:29:23;;;;;;;20.80;16.57;;;12.30;95.60;;;;;;5052760;28;20889;-67
2022/03/29 01:31:50;;;;;;;20.83;17.07;;;12.20;95.70;;;;;;5053506;28;20424;-74
2022/03/29 01:34:19;;;;;;;18.93;15.20;;;12.30;95.80;;;;;;5053671;28;20201;-67
2022/03/29 01:36:45;;;;;;;21.60;16.20;;;12.30;95.80;;;;;;5052377;28;20477;-67
2022/03/29 01:39:12;;;;;;;26.13;16.40;;;12.30;95.80;;;;;;5053341;28;20836;-67
2022/03/29 01:41:40;;;;;;;23.53;16.47;;;12.30;95.60;;;;;;5053978;28;20419;-67
2022/03/29 01:44:08;;;;;;;19.30;15.60;;;12.30;95.90;;;;;;5052862;28;20419;-67
2022/03/29 01:46:34;;;;;;;24.07;16.00;;;12.30;96.60;;;;;;5053458;28;20412;-67
2022/03/29 01:49:01;;;;;;;19.80;16.40;;;12.30;96.20;;;;;;5052904;28;20414;-67
2022/03/29 01:51:27;;;;;;;21.20;16.83;;;12.30;96.10;;;;;;5053700;28;20841;-67
2022/03/29 01:53:54;;;;;;;20.17;15.60;;;12.30;96.20;;;;;;5052741;28;20459;-67
2022/03/29 01:56:20;;;;;;;20.00;16.97;;;12.30;96.50;;;;;;5053337;28;20414;-67
2022/03/29 01:58:46;;;;;;;22.73;16.80;;;12.30;96.70;;;;;;5053253;28;20438;-67
2022/03/29 02:01:12;;;;;;;21.37;16.57;;;12.20;96.50;;;;;;5051138;28;20178;-67
2022/03/29 02:03:38;;;;;;;21.67;16.73;;;12.30;96.60;;;;;;5053183;28;20186;-67
2022/03/29 02:06:04;;;;;;;25.70;17.50;;;12.30;96.70;;;;;;5052588;28;20420;-67
2022/03/29 02:08:30;;;;;;;22.80;17.50;;;12.20;96.90;;;;;;5053110;28;20435;-67
2022/03/29 02:10:56;;;;;;;19.57;16.87;;;12.10;96.90;;;;;;5052177;28;20681;-67
2022/03/29 02:13:22;;;;;;;20.40;16.70;;;12.10;97.10;;;;;;5053059;28;20209;-67
2022/03/29 02:15:48;;;;;;;21.27;16.73;;;12.10;97.00;;;;;;5051682;28;20779;-67
2022/03/29 02:18:15;;;;;;;20.20;16.33;;;12.10;97.10;;;;;;5051592;28;20846;-67
2022/03/29 02:20:41;;;;;;;24.80;16.50;;;12.10;97.10;;;;;;5052756;28;20542;-67
2022/03/29 02:23:08;;;;;;;21.60;16.90;;;12.10;97.20;;;;;;5052267;28;20427;-67
2022/03/29 02:25:35;;;;;;;22.67;17.40;;;12.10;97.30;;;;;;5052838;28;20419;-67
2022/03/29 02:28:02;;;;;;;20.73;16.50;;;12.20;97.30;;;;;;5052445;28;20527;-67
2022/03/29 02:30:28;;;;;;;21.87;17.40;;;12.10;97.50;;;;;;5051517;28;20932;-67
2022/03/29 02:32:54;;;;;;;23.50;18.10;;;12.10;97.60;;;;;;5051999;28;20468;-67
2022/03/29 02:35:20;;;;;;;23.83;17.80;;;12.10;97.60;;;;;;5052735;28;20410;-67
2022/03/29 02:37:45;;;;;;;25.70;17.93;;;12.10;97.40;;;;;;5052380;28;20614;-67
2022/03/29 02:40:13;;;;;;;26.70;18.43;;;12.10;97.50;;;;;;5052046;28;20891;-67
2022/03/29 02:42:47;;;;;;;21.43;17.43;;;12.00;97.60;;;;;;5052604;28;20181;-67
2022/03/29 02:45:17;;;;;;;25.20;17.80;;;12.00;97.60;;;;;;5051760;28;21218;-67
2022/03/29 02:47:45;;;;;;;26.10;16.57;;;12.10;97.30;;;;;;5052604;28;20403;-67
2022/03/29 02:50:12;;;;;;;25.13;18.70;;;12.10;96.90;;;;;;5051888;28;20491;-67
2022/03/29 02:52:49;;;;;;;21.20;16.73;;;12.00;96.90;;;;;;5052415;28;20464;-67
2022/03/29 02:55:16;;;;;;;26.10;18.33;;;12.10;97.10;;;;;;5051905;28;20515;-67
2022/03/29 02:57:43;;;;;;;23.20;17.53;;;12.10;97.20;;;;;;5052822;28;20420;-67
2022/03/29 03:00:12;;;;;;;27.80;18.40;;;12.10;97.00;;;;;;5051650;28;20416;-67
2022/03/29 03:02:37;;;;;;;24.90;18.40;;;12.10;97.00;;;;;;5052459;28;20424;-67
2022/03/29 03:05:03;;;;;;;25.40;20.03;;;12.10;97.10;;;;;;5051810;28;20418;-67
2022/03/29 03:07:29;;;;;;;27.50;20.67;;;12.10;97.10;;;;;;5052448;28;20175;-67
2022/03/29 03:09:55;;;;;;;30.83;20.43;;;12.10;97.20;;;;;;5033967;28;21019;-67
2022/03/29 03:12:21;;;;;;;26.07;19.00;;;12.10;97.30;;;;;;5052528;28;20494;-67
2022/03/29 03:14:48;;;;;;;27.83;20.90;;;12.10;97.50;;;;;;5052383;28;20415;-67
2022/03/29 03:17:14;;;;;;;25.27;19.37;;;12.10;97.40;;;;;;5050536;28;20419;-67
2022/03/29 03:19:39;;;;;;;27.57;19.70;;;12.10;97.40;;;;;;5052054;28;20424;-67
2022/03/29 03:22:05;;;;;;;26.27;19.57;;;12.10;97.70;;;;;;5051880;28;20265;-67
2022/03/29 03:24:31;;;;;;;24.37;18.50;;;12.00;97.70;;;;;;5052413;28;20182;-67
2022/03/29 03:26:57;;;;;;;28.03;20.30;;;12.00;97.70;;;;;;5051591;28;20774;-67
2022/03/29 03:29:22;;;;;;;25.10;19.33;;;12.00;97.50;;;;;;5052204;28;20178;-67
2022/03/29 03:31:49;;;;;;;25.30;20.13;;;12.00;97.50;;;;;;5056102;28;20185;-67
2022/03/29 03:34:15;;;;;;;31.40;20.80;;;12.00;97.50;;;;;;5055380;28;20208;-67
2022/03/29 03:36:40;;;;;;;31.37;21.00;;;12.00;97.60;;;;;;5055666;28;20900;-67
2022/03/29 03:39:06;;;;;;;34.40;21.80;;;12.00;97.40;;;;;;5055326;28;20420;-67
2022/03/29 03:41:32;;;;;;;25.67;19.97;;;11.90;97.50;;;;;;5055976;28;20634;-67
2022/03/29 03:43:57;;;;;;;27.27;20.20;;;11.90;97.70;;;;;;5055510;28;20186;-67
2022/03/29 03:46:24;;;;;;;29.30;20.37;;;11.80;97.60;;;;;;5056041;28;20181;-67
2022/03/29 03:48:49;;;;;;;32.47;20.37;;;11.60;98.00;;;;;;5055778;28;20232;-67
2022/03/29 03:51:15;;;;;;;29.87;21.77;;;11.60;98.10;;;;;;5055079;28;20909;-67
2022/03/29 03:53:42;;;;;;;26.53;20.40;;;11.60;98.30;;;;;;5055584;28;20659;-67
2022/03/29 03:56:08;;;;;;;29.60;21.10;;;11.60;98.30;;;;;;5055020;28;20185;-67
2022/03/29 03:58:33;;;;;;;32.27;23.30;;;11.40;98.60;;;;;;5055582;28;20423;-67
2022/03/29 04:00:59;;;;;;;28.83;21.37;;;11.30;99.00;;;;;;5055396;28;20177;-67
2022/03/29 04:03:25;;;;;;;30.50;23.20;;;11.10;99.40;;;;;;5055225;28;20186;-67
2022/03/29 04:05:52;;;;;;;31.43;21.73;;;11.10;99.90;;;;;;5055495;28;20171;-67
2022/03/29 04:08:18;;;;;;;26.20;19.43;;;11.20;99.90;;;;;;5055157;28;20173;-67
2022/03/29 04:10:44;;;;;;;32.90;24.23;;;10.90;99.60;;;;;;5054027;28;20442;-67
2022/03/29 04:13:10;;;;;;;29.27;22.40;;;11.20;99.90;;;;;;5054418;28;20822;-67
2022/03/29 04:15:36;;;;;;;34.37;23.90;;;11.00;99.90;;;;;;5055274;28;20411;-67
2022/03/29 04:18:02;;;;;;;31.33;22.73;;;10.80;99.90;;;;;;5054588;28;20181;-67
2022/03/29 04:20:29;;;;;;;30.50;23.30;;;10.80;99.90;;;;;;5054811;28;20835;-67
2022/03/29 04:22:55;;;;;;;29.93;22.07;;;10.60;99.90;;;;;;5055115;28;20187;-67
2022/03/29 04:25:22;;;;;;;30.70;21.80;;;10.70;99.90;;;;;;5054453;28;20661;-67
2022/03/29 04:27:48;;;;;;;28.83;21.40;;;10.80;99.90;;;;;;5055028;28;20413;-67
2022/03/29 04:30:14;;;;;;;29.43;22.37;;;10.90;99.90;;;;;;5054223;28;20417;-67
2022/03/29 04:32:39;;;;;;;32.90;22.40;;;11.00;99.90;;;;;;5054890;28;20490;-67
2022/03/29 04:35:06;;;;;;;34.17;23.40;;;11.00;99.90;;;;;;5054344;28;20618;-67
2022/03/29 04:37:31;;;;;;;29.00;22.40;;;11.10;99.90;;;;;;5054523;28;20677;-67
2022/03/29 04:39:57;;;;;;;33.07;23.00;;;11.10;99.90;;;;;;5054519;28;20411;-67
2022/03/29 04:42:23;;;;;;;33.87;23.10;;;11.00;99.90;;;;;;5051763;28;20264;-67
2022/03/29 04:44:48;;;;;;;31.63;22.30;;;11.10;99.90;;;;;;5054716;28;20187;-67
2022/03/29 04:47:14;;;;;;;30.10;22.87;;;11.10;99.90;;;;;;5054394;28;20651;-67
2022/03/29 04:49:40;;;;;;;30.33;22.50;;;11.10;99.90;;;;;;5054670;28;20261;-67
2022/03/29 04:52:06;;;;;;;30.67;22.47;;;11.20;99.90;;;;;;5054023;28;20588;-67
2022/03/29 04:54:32;;;;;;;32.83;23.53;;;11.20;99.90;;;;;;5053491;28;20193;-66
2022/03/29 04:57:00;;;;;;;34.23;24.40;;;11.10;99.90;;;;;;5054220;28;20420;-67
2022/03/29 04:59:26;;;;;;;31.27;23.60;;;10.90;99.90;;;;;;5054084;28;20181;-67
2022/03/29 05:01:52;;;;;;;34.93;23.73;;;10.80;99.90;;;;;;5054387;28;20447;-67
2022/03/29 05:04:18;;;;;;;33.87;23.50;;;10.90;99.90;;;;;;5053706;28;20415;-67
2022/03/29 05:06:44;;;;;;;36.00;25.30;;;11.00;99.90;;;;;;5054337;28;20217;-67
2022/03/29 05:09:10;;;;;;;32.77;23.10;;;11.00;99.90;;;;;;5053601;28;20443;-67
2022/03/29 05:11:35;;;;;;;32.43;23.37;;;11.00;99.90;;;;;;5054213;28;20177;-67
2022/03/29 05:14:01;;;;;;;34.30;23.17;;;11.00;99.90;;;;;;5052672;28;20208;-75
2022/03/29 05:16:27;;;;;;;30.83;23.37;;;11.00;99.90;;;;;;5054352;28;20219;-67
2022/03/29 05:18:53;;;;;;;35.93;25.20;;;11.00;99.90;;;;;;5054101;28;20942;-67
2022/03/29 05:21:19;;;;;;;34.40;24.33;;;11.00;99.90;;;;;;5053495;28;20260;-67
2022/03/29 05:23:44;;;;;;;33.97;24.30;;;10.70;99.90;;;;;;5053928;28;20209;-67
2022/03/29 05:26:11;;;;;;;34.67;25.57;;;10.40;99.90;;;;;;5053354;28;20402;-67
2022/03/29 05:28:36;;;;;;;36.40;27.23;;;10.30;99.90;;;;;;5053876;28;20530;-67
2022/03/29 05:31:02;;;;;;;35.37;25.30;;;10.20;99.90;;;;;;5053738;28;20423;-75
2022/03/29 05:33:28;;;;;;;35.80;23.53;;;10.10;99.90;;;;;;5053667;28;20204;-67
2022/03/29 05:35:54;;;;;;;33.00;24.40;;;9.90;99.90;;;;;;5053757;28;20412;-67
2022/03/29 05:38:20;;;;;;;36.57;24.60;;;9.70;99.90;;;;;;5052736;28;20174;-67
2022/03/29 05:40:45;;;;;;;37.47;25.00;;;9.80;99.90;;;;;;5052333;28;20619;-67
2022/03/29 05:43:11;;;;;;;32.87;24.47;;;9.70;99.90;;;;;;5051578;28;20191;-67
2022/03/29 05:45:38;;;;;;;36.93;25.50;;;9.50;99.90;;;;;;5053465;28;20179;-67
2022/03/29 05:50:49;;;;;;;34.97;25.53;;;9.60;99.90;;;;;;5053410;28;20429;-67
2022/03/29 05:53:15;;;;;;;33.83;25.10;;;9.70;99.90;;;;;;5052547;28;20524;-67
2022/03/29 05:55:41;;;;;;;36.70;26.10;;;9.70;99.90;;;;;;5053106;28;20192;-67
2022/03/29 05:58:06;;;;;;;38.20;26.80;;;9.80;99.90;;;;;;5052342;28;20184;-67
2022/03/29 06:00:32;;;;;;;40.77;27.53;;;9.80;99.90;;;;;;5053016;28;20261;-66
2022/03/29 06:02:58;;;;;;;44.27;29.73;;;9.90;99.90;;;;;;5053374;28;20240;-67
2022/03/29 06:05:24;;;;;;;38.60;28.17;;;9.70;99.90;;;;;;5052495;28;20642;-67
2022/03/29 06:07:50;;;;;;;40.83;27.73;;;9.70;99.90;;;;;;5052840;28;20170;-67
2022/03/29 06:10:16;;;;;;;40.33;26.60;;;9.80;99.90;;;;;;5052178;28;20427;-66
2022/03/29 06:12:45;;;;;;;39.80;28.27;;;9.90;99.90;;;;;;5051352;28;21009;-67
2022/03/29 06:15:11;;;;;;;39.97;26.43;;;9.90;99.90;;;;;;5052428;28;20832;-68
2022/03/29 06:17:37;;;;;;;45.40;28.13;;;10.00;99.90;;;;;;5053045;28;20414;-67
2022/03/29 06:20:06;;;;;;;43.13;28.53;;;10.10;99.90;;;;;;5052818;28;20456;-67
2022/03/29 06:22:37;;;;;;;46.77;29.07;;;9.90;99.90;;;;;;5053071;28;20575;-66
2022/03/29 06:25:03;;;;;;;42.57;26.93;;;10.00;99.90;;;;;;5052945;28;20738;-67
2022/03/29 06:27:29;;;;;;;44.77;29.00;;;10.00;99.90;;;;;;5051893;28;20571;-67
2022/03/29 06:29:57;;;;;;;41.17;28.10;;;9.90;99.90;;;;;;5052835;28;20837;-68
2022/03/29 06:32:23;;;;;;;46.30;30.03;;;10.00;99.90;;;;;;5052016;28;20463;-67
2022/03/29 06:34:49;;;;;;;43.13;28.23;;;10.10;99.90;;;;;;5051456;28;20885;-68
2022/03/29 06:37:15;;;;;;;43.23;28.40;;;10.10;99.90;;;;;;5050846;28;20443;-67
2022/03/29 06:39:41;;;;;;;41.63;27.10;;;10.10;99.90;;;;;;5052609;28;20429;-67
2022/03/29 06:42:07;;;;;;;44.50;28.30;;;10.30;99.90;;;;;;5052000;28;20401;-72
2022/03/29 06:44:33;;;;;;;41.57;28.30;;;10.20;99.90;;;;;;5052634;28;20175;-67
2022/03/29 06:47:01;;;;;;;38.27;26.57;;;10.30;99.90;;;;;;5052511;28;20208;-68
2022/03/29 06:49:27;;;;;;;45.20;28.03;;;10.30;99.90;;;;;;5051904;28;20569;-68
2022/03/29 06:51:54;;;;;;;42.40;28.53;;;10.40;99.90;;;;;;5052543;28;20413;-67
2022/03/29 06:54:20;;;;;;;43.00;28.53;;;10.30;99.90;;;;;;5051599;28;20521;-68
2022/03/29 06:56:46;;;;;;;43.57;27.27;;;10.30;99.90;;;;;;5052928;28;20476;-67
2022/03/29 06:59:12;;;;;;;41.40;30.70;;;10.30;99.90;;;;;;5051924;28;20413;-68
2022/03/29 07:01:38;;;;;;;39.43;27.90;;;10.50;99.90;;;;;;5051140;28;20909;-68
2022/03/29 07:04:08;;;;;;;46.70;31.33;;;10.50;99.90;;;;;;5052173;28;20427;-67
2022/03/29 07:06:34;;;;;;;39.33;26.93;;;10.50;99.90;;;;;;5056616;28;20193;-67
2022/03/29 07:11:46;;;;;;;51.47;30.13;;;10.60;99.90;;;;;;5056521;28;20404;-67
2022/03/29 07:14:12;;;;;;;43.40;29.00;;;10.60;99.90;;;;;;5054441;28;21024;-69
2022/03/29 07:16:39;;;;;;;42.80;30.00;;;10.60;99.90;;;;;;5056170;28;20448;-68
2022/03/29 07:19:08;;;;;;;40.40;28.27;;;10.60;99.90;;;;;;5056336;28;20462;-67
2022/03/29 07:21:38;;;;;;;47.30;31.47;;;10.70;99.90;;;;;;5055906;28;20453;-67
2022/03/29 07:24:05;;;;;;;45.77;31.10;;;10.70;99.90;;;;;;5056229;28;20457;-67
2022/03/29 07:26:31;;;;;;;47.63;30.13;;;10.70;99.90;;;;;;5055668;28;20427;-67
2022/03/29 07:28:57;;;;;;;43.00;29.67;;;10.80;99.90;;;;;;5055909;28;20915;-68
2022/03/29 07:31:24;;;;;;;44.67;28.93;;;10.80;99.90;;;;;;5053678;28;20425;-67
2022/03/29 07:33:50;;;;;;;39.17;28.43;;;10.80;99.90;;;;;;5056017;28;20469;-68
2022/03/29 07:36:15;;;;;;;46.37;29.90;;;10.80;99.90;;;;;;5055711;28;20892;-68
2022/03/29 07:38:41;;;;;;;42.83;28.40;;;10.60;99.90;;;;;;5054941;28;20199;-68
2022/03/29 07:41:07;;;;;;;43.67;28.53;;;10.50;99.90;;;;;;5056074;28;20176;-68
2022/03/29 07:43:33;;;;;;;48.00;28.30;;;10.70;99.90;;;;;;5054929;28;20889;-68
2022/03/29 07:45:59;;;;;;;44.73;29.27;;;10.70;99.90;;;;;;5055938;28;20181;-67
2022/03/29 07:48:25;;;;;;;48.37;31.07;;;10.80;99.90;;;;;;5055142;28;20177;-68
2022/03/29 07:50:52;;;;;;;48.73;33.07;;;10.90;99.90;;;;;;5055708;28;20526;-68
2022/03/29 07:53:17;;;;;;;56.97;34.73;;;10.90;99.90;;;;;;5054986;28;20468;-68
2022/03/29 07:55:43;;;;;;;53.90;34.47;;;10.70;99.90;;;;;;5055575;28;20419;-68
2022/03/29 07:58:09;;;;;;;53.60;33.87;;;10.60;99.90;;;;;;5055623;28;20211;-67
2022/03/29 08:00:36;;;;;;;46.87;30.50;;;10.60;99.90;;;;;;5055038;28;20548;-68
2022/03/29 08:03:14;;;;;;;52.40;31.33;;;10.70;99.90;;;;;;5055640;28;20195;-67
2022/03/29 08:05:41;;;;;;;51.13;32.57;;;10.80;99.90;;;;;;5055513;28;20450;-68
2022/03/29 08:08:10;;;;;;;50.77;31.53;;;10.90;99.90;;;;;;5055429;28;20413;-67
2022/03/29 08:10:36;;;;;;;45.13;31.10;;;10.90;99.90;;;;;;5054703;28;20402;-68
2022/03/29 08:13:03;;;;;;;50.17;33.00;;;10.90;99.90;;;;;;5055427;28;20461;-68
2022/03/29 08:15:30;;;;;;;44.60;31.43;;;11.00;99.90;;;;;;5054284;28;20796;-68
2022/03/29 08:17:57;;;;;;;48.13;32.20;;;11.10;99.90;;;;;;5054973;28;20759;-68
2022/03/29 08:20:23;;;;;;;56.80;33.87;;;11.00;99.90;;;;;;5054483;28;20475;-67
2022/03/29 08:22:49;;;;;;;49.13;31.40;;;11.10;99.90;;;;;;5054825;28;20432;-67
2022/03/29 08:25:18;;;;;;;49.30;32.27;;;11.10;99.90;;;;;;5054421;28;20475;-68
2022/03/29 08:27:45;;;;;;;43.70;29.50;;;11.20;99.90;;;;;;5055003;28;20420;-68
2022/03/29 08:30:13;;;;;;;42.90;30.13;;;11.20;99.90;;;;;;5054986;28;20406;-68
2022/03/29 08:32:39;;;;;;;42.33;28.40;;;11.20;99.90;;;;;;5054604;28;20510;-68
2022/03/29 08:35:08;;;;;;;47.93;29.90;;;11.20;99.90;;;;;;5053241;28;20525;-67
2022/03/29 08:37:39;;;;;;;48.97;31.20;;;11.20;99.90;;;;;;5054226;28;20439;-67
2022/03/29 08:40:12;;;;;;;44.33;30.47;;;11.30;99.90;;;;;;5054851;28;20514;-67
2022/03/29 08:42:40;;;;;;;42.67;30.43;;;11.30;99.90;;;;;;5054584;28;20408;-68
2022/03/29 08:45:07;;;;;;;48.40;32.07;;;11.40;99.90;;;;;;5054808;28;20419;-68
2022/03/29 08:47:33;;;;;;;50.70;33.47;;;11.40;99.90;;;;;;5053752;28;20496;-67
2022/03/29 08:50:01;;;;;;;44.30;30.50;;;11.40;99.90;;;;;;5054700;28;20464;-67
2022/03/29 08:52:27;;;;;;;46.00;31.80;;;11.50;99.90;;;;;;5053904;28;20402;-68
2022/03/29 08:54:53;;;;;;;51.90;34.67;;;11.20;99.90;;;;;;5054528;28;20419;-67
2022/03/29 08:57:20;;;;;;;50.33;30.83;;;10.70;99.90;;;;;;5053804;28;20407;-68
2022/03/29 08:59:46;;;;;;;49.27;32.10;;;10.70;99.90;;;;;;5054684;28;20758;-67
2022/03/29 09:02:15;;;;;;;49.30;31.70;;;10.80;99.90;;;;;;5054480;28;20416;-69
2022/03/29 09:04:41;;;;;;;44.70;30.30;;;11.00;99.90;;;;;;5054448;28;20200;-67
2022/03/29 09:07:07;;;;;;;45.27;29.87;;;11.10;99.90;;;;;;5054552;28;20411;-67
2022/03/29 09:09:41;;;;;;;45.53;29.93;;;10.90;99.90;;;;;;5053644;28;20186;-68
2022/03/29 09:12:20;;;;;;;46.20;30.53;;;11.00;99.90;;;;;;5054204;28;20166;-67
2022/03/29 09:14:57;;;;;;;53.23;31.70;;;10.90;99.90;;;;;;5054194;28;20439;-67
2022/03/29 09:17:35;;;;;;;54.07;30.63;;;10.60;99.90;;;;;;5053576;28;20754;-68
2022/03/29 09:20:21;;;;;;;45.93;29.80;;;10.80;99.90;;;;;;5053540;28;20884;-68
2022/03/29 09:22:55;;;;;;;49.77;31.20;;;10.90;99.90;;;;;;5054258;28;20915;-68
2022/03/29 09:25:38;;;;;;;45.30;29.27;;;11.00;99.90;;;;;;5035411;28;20416;-68
2022/03/29 09:28:05;;;;;;;47.03;31.50;;;11.10;99.90;;;;;;5053394;28;20394;-68
2022/03/29 09:30:41;;;;;;;49.90;31.17;;;11.10;99.90;;;;;;5053229;28;20523;-67
2022/03/29 09:33:10;;;;;;;51.93;34.97;;;11.20;99.90;;;;;;5053507;28;20941;-67
2022/03/29 09:35:54;;;;;;;44.67;30.97;;;11.30;99.90;;;;;;5052867;28;20792;-68
2022/03/29 09:38:40;;;;;;;45.30;30.93;;;11.40;99.90;;;;;;5053136;28;20390;-68
2022/03/29 09:41:37;;;;;;;45.23;29.93;;;11.50;99.90;;;;;;5053704;28;20488;-68
2022/03/29 09:44:09;;;;;;;48.07;31.30;;;11.50;99.90;;;;;;5044741;28;20568;-68
2022/03/29 09:46:53;;;;;;;46.73;32.90;;;11.40;99.90;;;;;;5052651;28;20957;-68
2022/03/29 09:49:20;;;;;;;50.47;31.40;;;11.30;99.90;;;;;;5052960;28;20416;-68
2022/03/29 09:52:15;;;;;;;46.57;32.93;;;11.40;99.90;;;;;;5053468;28;20411;-68
2022/03/29 09:54:41;;;;;;;48.53;33.47;;;11.50;99.90;;;;;;5051455;28;20473;-68
2022/03/29 09:57:09;;;;;;;46.90;31.00;;;11.60;99.90;;;;;;5053301;28;20460;-68
2022/03/29 09:59:47;;;;;;;50.70;30.87;;;11.70;99.90;;;;;;5052580;28;20477;-68
2022/03/29 10:02:13;;;;;;;49.07;30.93;;;11.70;99.90;;;;;;5053260;28;20400;-67
2022/03/29 10:04:40;;;;;;;48.23;31.73;;;11.70;99.90;;;;;;5052497;28;20913;-68
2022/03/29 10:07:09;;;;;;;45.67;30.43;;;11.80;99.90;;;;;;5052912;28;20174;-67
2022/03/29 10:09:38;;;;;;;45.40;30.63;;;11.80;99.90;;;;;;5052199;28;20770;-68
2022/03/29 10:12:09;;;;;;;48.33;31.23;;;11.70;99.90;;;;;;5052835;28;20739;-68
2022/03/29 10:14:41;;;;;;;45.70;31.60;;;11.70;99.90;;;;;;5052405;28;20494;-68
2022/03/29 10:17:07;;;;;;;48.10;32.27;;;11.90;99.90;;;;;;5053020;28;20431;-68
2022/03/29 10:19:34;;;;;;;49.87;33.23;;;11.90;99.90;;;;;;5052348;28;20412;-67
2022/03/29 10:22:01;;;;;;;42.80;30.03;;;12.00;99.90;;;;;;5052916;28;20424;-68
2022/03/29 10:24:29;;;;;;;43.70;29.03;;;12.00;99.90;;;;;;5052248;28;20783;-68
2022/03/29 10:26:56;;;;;;;42.53;27.33;;;11.90;99.90;;;;;;5052830;28;20791;-68
2022/03/29 10:29:23;;;;;;;38.63;28.60;;;11.70;99.90;;;;;;5051859;28;20447;-68
2022/03/29 10:31:56;;;;;;;47.10;31.73;;;11.60;99.90;;;;;;5052783;28;20435;-68
2022/03/29 10:34:26;;;;;;;42.60;29.80;;;11.60;99.90;;;;;;5052100;28;20448;-68
2022/03/29 10:37:11;;;;;;;45.17;28.77;;;11.80;99.90;;;;;;5053191;28;20426;-68
2022/03/29 10:40:03;;;;;;;42.23;30.13;;;11.80;99.90;;;;;;5050971;28;20411;-68
2022/03/29 10:42:29;;;;;;;40.10;28.07;;;11.90;99.90;;;;;;5050303;28;20420;-68
2022/03/29 10:45:11;;;;;;;43.60;30.57;;;11.90;99.90;;;;;;5052490;28;20421;-68
2022/03/29 10:47:37;;;;;;;43.70;28.53;;;12.00;99.90;;;;;;5052199;28;20193;-68
2022/03/29 10:50:05;;;;;;;44.23;32.20;;;12.10;99.90;;;;;;5052242;28;20434;-68
2022/03/29 10:52:51;;;;;;;45.53;31.70;;;12.10;99.90;;;;;;5050329;28;20836;-68
2022/03/29 10:55:28;;;;;;;41.43;28.20;;;12.30;99.90;;;;;;5051960;28;20911;-68
2022/03/29 10:58:11;;;;;;;44.07;30.30;;;12.30;99.90;;;;;;5052433;28;20455;-68
2022/03/29 11:00:42;;;;;;;44.10;28.97;;;12.30;99.90;;;;;;5052166;28;20417;-68
2022/03/29 11:03:20;;;;;;;44.20;30.53;;;12.10;99.90;;;;;;5052795;28;20407;-68
2022/03/29 11:06:12;;;;;;;43.23;29.70;;;12.10;99.90;;;;;;5051786;28;20399;-68
2022/03/29 11:08:40;;;;;;;45.97;29.73;;;11.80;99.90;;;;;;5052034;28;20502;-68
2022/03/29 11:11:07;;;;;;;45.30;31.23;;;11.80;99.90;;;;;;5052458;28;20420;-68
2022/03/29 11:13:38;;;;;;;47.67;31.10;;;11.90;99.90;;;;;;5051352;28;20958;-68
2022/03/29 11:16:30;;;;;;;41.47;29.30;;;12.10;99.90;;;;;;5052373;28;20407;-68
2022/03/29 11:18:58;;;;;;;39.80;28.60;;;12.20;99.90;;;;;;5052368;28;20431;-68
2022/03/29 11:21:32;;;;;;;41.30;30.47;;;12.30;99.90;;;;;;5051832;28;20521;-74
2022/03/29 11:24:00;;;;;;;43.37;29.33;;;12.40;99.90;;;;;;5052104;28;20430;-67
2022/03/29 11:26:27;;;;;;;40.87;27.93;;;12.30;99.90;;;;;;5051749;28;20438;-68
2022/03/29 11:28:55;;;;;;;43.53;28.87;;;12.20;99.90;;;;;;5051153;28;20446;-68
2022/03/29 11:31:22;;;;;;;43.80;31.40;;;12.20;99.90;;;;;;5051750;28;20508;-67
2022/03/29 11:33:49;;;;;;;43.23;27.83;;;12.30;99.90;;;;;;5051763;28;20833;-67
2022/03/29 11:36:17;;;;;;;42.87;30.50;;;12.40;99.90;;;;;;5052276;28;20813;-67
2022/03/29 11:38:44;;;;;;;42.60;27.20;;;12.60;99.90;;;;;;5051476;28;20450;-68
2022/03/29 11:41:39;;;;;;;37.03;26.63;;;12.40;99.70;;;;;;5052322;28;20408;-68
2022/03/29 11:44:07;;;;;;;36.33;26.03;;;12.50;99.90;;;;;;5043207;28;20434;-68
2022/03/29 11:47:01;;;;;;;40.07;29.50;;;12.60;99.90;;;;;;5051442;28;20450;-68
2022/03/29 11:49:37;;;;;;;39.07;26.70;;;12.70;99.70;;;;;;5042487;28;20427;-68
2022/03/29 11:52:11;;;;;;;35.57;28.03;;;12.80;99.40;;;;;;5054653;28;20409;-68
2022/03/29 11:54:54;;;;;;;42.27;28.10;;;12.80;99.70;;;;;;5055112;28;20454;-67
2022/03/29 11:57:28;;;;;;;36.77;25.97;;;13.00;99.70;;;;;;5055733;28;20431;-67
2022/03/29 11:59:56;;;;;;;37.57;28.60;;;13.10;99.00;;;;;;5055512;28;20481;-67
2022/03/29 12:02:23;;;;;;;39.13;27.00;;;13.10;98.70;;;;;;5055285;28;20411;-67
2022/03/29 12:04:49;;;;;;;39.53;25.80;;;13.20;98.00;;;;;;5054768;28;20400;-67
2022/03/29 12:07:16;;;;;;;37.40;26.37;;;13.30;98.40;;;;;;5054796;28;20422;-67
2022/03/29 12:09:49;;;;;;;34.57;24.47;;;13.30;97.30;;;;;;5054533;28;20545;-67
2022/03/29 12:12:19;;;;;;;32.73;25.23;;;13.40;97.80;;;;;;5055131;28;20411;-67
2022/03/29 12:14:45;;;;;;;36.67;24.73;;;13.30;97.00;;;;;;5054939;28;20457;-67
2022/03/29 12:17:12;;;;;;;34.13;24.67;;;13.40;97.10;;;;;;5054997;28;20542;-67
2022/03/29 12:19:39;;;;;;;37.83;26.97;;;13.30;96.60;;;;;;5054352;28;20174;-67
2022/03/29 12:22:07;;;;;;;35.50;26.00;;;13.30;96.60;;;;;;5055182;28;20839;-67
2022/03/29 12:24:36;;;;;;;35.83;24.17;;;13.30;97.20;;;;;;5054467;28;20418;-68
2022/03/29 12:27:14;;;;;;;36.03;26.77;;;13.40;97.70;;;;;;5055111;28;20476;-67
2022/03/29 12:29:47;;;;;;;36.70;25.33;;;13.30;96.80;;;;;;5054444;28;20749;-68
2022/03/29 12:32:14;;;;;;;38.10;25.00;;;13.30;97.40;;;;;;5055424;28;20460;-67
2022/03/29 12:34:41;;;;;;;36.70;25.57;;;13.40;97.50;;;;;;5054268;28;20464;-67
2022/03/29 12:37:13;;;;;;;37.23;25.97;;;13.40;96.80;;;;;;5054902;28;20835;-67
2022/03/29 12:39:41;;;;;;;31.83;25.20;;;13.50;96.90;;;;;;5052992;28;20503;-67
2022/03/29 12:42:16;;;;;;;37.40;24.87;;;13.50;96.30;;;;;;5053346;28;20812;-67